Time;durP1;ratioP1;P1;durP2;ratioP2;P2;SDS_P1;SDS_P2;PMS_P1;PMS_P2;Temp;Humidity;BMP_temperature;BMP_pressure;BME280_temperature;BME280_humidity;BME280_pressure;Samples;Min_cycle;Max_cycle;Signal;HPM_P1;HPM_P2
2024/01/12 00:00:23;;;;;;;2.65;2.45;;;;;;;;;;5085561;28;20540;-73
2024/01/12 00:02:49;;;;;;;3.35;3.15;;;;;;;;;;5090853;28;20652;-73
2024/01/12 00:05:15;;;;;;;3.15;2.85;;;;;;;;;;5083074;28;20590;-73
2024/01/12 00:07:41;;;;;;;2.95;2.75;;;;;;;;;;5089421;28;20036;-73
2024/01/12 00:10:08;;;;;;;3.28;3.08;;;;;;;;;;5080228;28;20035;-73
2024/01/12 00:12:34;;;;;;;2.80;2.60;;;;;;;;;;5082698;28;20033;-73
2024/01/12 00:15:00;;;;;;;3.85;3.05;;;;;;;;;;5081979;28;20082;-73
2024/01/12 00:17:26;;;;;;;2.78;2.67;;;;;;;;;;5085232;28;20538;-72
2024/01/12 00:19:52;;;;;;;2.92;2.72;;;;;;;;;;5081116;28;20089;-73
2024/01/12 00:22:18;;;;;;;2.05;1.95;;;;;;;;;;5067279;28;20027;-74
2024/01/12 00:24:44;;;;;;;3.38;2.88;;;;;;;;;;5081216;28;20028;-73
2024/01/12 00:27:11;;;;;;;3.55;2.42;;;;;;;;;;5079718;28;20038;-72
2024/01/12 00:29:38;;;;;;;4.30;2.80;;;;;;;;;;5081245;28;20077;-73
2024/01/12 00:32:07;;;;;;;3.15;2.90;;;;;;;;;;5061582;28;20073;-73
2024/01/12 00:34:33;;;;;;;3.75;3.45;;;;;;;;;;5080212;28;20048;-73
2024/01/12 00:36:59;;;;;;;2.45;2.25;;;;;;;;;;5082350;28;20036;-73
2024/01/12 00:39:26;;;;;;;3.28;2.80;;;;;;;;;;5081939;28;20050;-74
2024/01/12 00:41:52;;;;;;;2.50;2.30;;;;;;;;;;5086326;28;20052;-74
2024/01/12 00:44:18;;;;;;;2.70;2.50;;;;;;;;;;5099833;28;20032;-74
2024/01/12 00:46:44;;;;;;;2.83;2.60;;;;;;;;;;5070672;28;20622;-75
2024/01/12 00:49:11;;;;;;;3.50;3.20;;;;;;;;;;5080605;28;20036;-73
2024/01/12 00:51:37;;;;;;;3.28;3.00;;;;;;;;;;5083441;28;20035;-74
2024/01/12 00:54:04;;;;;;;4.82;2.78;;;;;;;;;;5083766;28;20080;-73
2024/01/12 00:56:30;;;;;;;3.55;3.17;;;;;;;;;;5072930;28;20055;-73
2024/01/12 00:58:57;;;;;;;4.15;3.70;;;;;;;;;;5061682;28;20113;-75
2024/01/12 01:01:23;;;;;;;2.95;2.75;;;;;;;;;;5080373;28;20078;-74
2024/01/12 01:03:49;;;;;;;3.08;2.88;;;;;;;;;;5073983;28;20020;-72
2024/01/12 01:06:15;;;;;;;4.50;2.80;;;;;;;;;;5079411;28;20042;-73
2024/01/12 01:08:41;;;;;;;3.35;3.15;;;;;;;;;;5080082;28;20036;-73
2024/01/12 01:11:06;;;;;;;3.25;2.95;;;;;;;;;;5067073;28;20131;-73
2024/01/12 01:13:35;;;;;;;4.32;3.92;;;;;;;;;;5080525;28;20107;-73
2024/01/12 01:16:02;;;;;;;2.58;2.47;;;;;;;;;;5079478;28;20048;-73
2024/01/12 01:18:30;;;;;;;5.60;3.63;;;;;;;;;;5079195;28;20081;-72
2024/01/12 01:20:57;;;;;;;3.03;2.83;;;;;;;;;;5077624;28;20071;-73
2024/01/12 01:23:23;;;;;;;3.28;3.08;;;;;;;;;;5081704;28;20633;-73
2024/01/12 01:25:49;;;;;;;9.90;2.63;;;;;;;;;;5100342;28;20055;-72
2024/01/12 01:28:15;;;;;;;2.55;2.45;;;;;;;;;;5076465;28;20039;-74
2024/01/12 01:30:40;;;;;;;3.53;3.33;;;;;;;;;;5076688;28;20036;-72
2024/01/12 01:33:06;;;;;;;3.92;3.65;;;;;;;;;;5075530;28;20045;-72
2024/01/12 01:35:32;;;;;;;4.10;3.47;;;;;;;;;;5078983;28;20465;-73
2024/01/12 01:37:58;;;;;;;4.22;3.78;;;;;;;;;;5083396;28;20020;-73
2024/01/12 01:40:24;;;;;;;6.10;3.33;;;;;;;;;;5078830;28;20059;-73
2024/01/12 01:42:49;;;;;;;3.40;3.20;;;;;;;;;;5079448;28;20070;-72
2024/01/12 01:45:15;;;;;;;4.25;3.88;;;;;;;;;;5079673;28;20052;-73
2024/01/12 01:47:42;;;;;;;3.70;3.40;;;;;;;;;;5083422;28;20032;-73
2024/01/12 01:50:08;;;;;;;3.45;3.15;;;;;;;;;;5084016;28;20029;-73
2024/01/12 01:52:33;;;;;;;3.53;3.22;;;;;;;;;;5076828;28;20554;-73
2024/01/12 01:54:59;;;;;;;3.75;3.45;;;;;;;;;;5090755;28;20147;-72
2024/01/12 01:57:26;;;;;;;3.83;3.40;;;;;;;;;;5082012;28;20032;-73
2024/01/12 01:59:52;;;;;;;5.45;3.67;;;;;;;;;;5077315;28;20041;-73
2024/01/12 02:02:18;;;;;;;3.42;3.22;;;;;;;;;;5081315;28;20036;-74
2024/01/12 02:04:44;;;;;;;5.10;4.10;;;;;;;;;;5081056;28;20028;-73
2024/01/12 02:07:09;;;;;;;5.15;3.30;;;;;;;;;;5076743;28;20032;-73
2024/01/12 02:09:35;;;;;;;4.10;3.72;;;;;;;;;;5102923;28;20027;-73
2024/01/12 02:12:04;;;;;;;4.63;4.13;;;;;;;;;;5075180;28;20530;-73
2024/01/12 02:14:30;;;;;;;5.65;3.88;;;;;;;;;;5086486;28;20155;-73
2024/01/12 02:16:56;;;;;;;5.15;3.38;;;;;;;;;;5055654;28;20040;-73
2024/01/12 02:19:21;;;;;;;3.90;3.38;;;;;;;;;;5076990;28;20032;-73
2024/01/12 02:21:47;;;;;;;4.07;3.00;;;;;;;;;;5078862;28;20063;-73
2024/01/12 02:24:13;;;;;;;3.53;3.22;;;;;;;;;;5077024;28;20044;-73
2024/01/12 02:26:39;;;;;;;4.30;3.67;;;;;;;;;;5069634;28;20039;-73
2024/01/12 02:29:05;;;;;;;5.03;3.05;;;;;;;;;;5074606;28;20039;-73
2024/01/12 02:31:31;;;;;;;4.00;3.55;;;;;;;;;;5080186;28;20496;-74
2024/01/12 02:33:57;;;;;;;4.43;4.03;;;;;;;;;;5077576;28;20105;-74
2024/01/12 02:36:26;;;;;;;4.72;3.38;;;;;;;;;;5073133;28;20094;-74
2024/01/12 02:38:52;;;;;;;3.38;3.17;;;;;;;;;;5073574;28;20032;-74
2024/01/12 02:41:18;;;;;;;3.22;2.92;;;;;;;;;;5073750;28;20040;-73
2024/01/12 02:43:45;;;;;;;11.38;2.15;;;;;;;;;;5080729;28;20054;-73
2024/01/12 02:46:11;;;;;;;3.25;2.88;;;;;;;;;;5083088;28;20444;-74
2024/01/12 02:48:37;;;;;;;4.78;3.60;;;;;;;;;;5079553;28;20036;-74
2024/01/12 02:51:03;;;;;;;4.43;2.97;;;;;;;;;;5077896;28;20517;-73
2024/01/12 02:53:28;;;;;;;5.43;3.70;;;;;;;;;;5079402;28;20019;-73
2024/01/12 02:55:54;;;;;;;3.20;2.90;;;;;;;;;;5077803;28;20212;-74
2024/01/12 02:58:20;;;;;;;3.00;2.80;;;;;;;;;;5080863;28;20024;-74
2024/01/12 03:00:46;;;;;;;3.78;3.47;;;;;;;;;;5079555;28;20052;-73
2024/01/12 03:03:12;;;;;;;3.63;3.33;;;;;;;;;;5077957;28;20057;-74
2024/01/12 03:05:38;;;;;;;2.25;2.15;;;;;;;;;;5078638;28;20450;-74
2024/01/12 03:08:04;;;;;;;3.13;2.92;;;;;;;;;;5058059;28;20512;-74
2024/01/12 03:10:29;;;;;;;5.95;3.17;;;;;;;;;;5079352;28;20041;-73
2024/01/12 03:12:55;;;;;;;3.03;2.60;;;;;;;;;;5078736;28;20054;-74
2024/01/12 03:15:21;;;;;;;9.32;2.97;;;;;;;;;;5077000;28;20304;-75
2024/01/12 03:17:47;;;;;;;2.38;2.17;;;;;;;;;;5078639;28;20056;-73
2024/01/12 03:20:13;;;;;;;2.85;2.45;;;;;;;;;;5052972;28;20146;-74
2024/01/12 03:22:39;;;;;;;2.83;2.63;;;;;;;;;;5090399;28;20028;-74
2024/01/12 03:25:05;;;;;;;3.58;3.20;;;;;;;;;;5088155;28;20078;-73
2024/01/12 03:27:34;;;;;;;2.50;2.40;;;;;;;;;;5082367;28;20036;-73
2024/01/12 03:30:00;;;;;;;2.10;1.95;;;;;;;;;;5085643;28;20039;-73
2024/01/12 03:32:26;;;;;;;3.78;3.45;;;;;;;;;;5063464;28;20143;-73
2024/01/12 03:34:52;;;;;;;1.80;1.70;;;;;;;;;;5084833;28;20579;-74
2024/01/12 03:37:18;;;;;;;3.17;2.95;;;;;;;;;;5100527;28;20059;-73
2024/01/12 03:39:46;;;;;;;3.00;2.85;;;;;;;;;;5090540;28;20173;-73
2024/01/12 03:42:12;;;;;;;4.75;3.72;;;;;;;;;;5079651;28;20089;-73
2024/01/12 03:44:38;;;;;;;4.07;3.20;;;;;;;;;;5082092;28;20028;-73
2024/01/12 03:47:04;;;;;;;3.03;2.85;;;;;;;;;;5090544;28;20047;-72
2024/01/12 03:49:30;;;;;;;3.53;3.22;;;;;;;;;;5097856;28;20032;-74
2024/01/12 03:51:57;;;;;;;3.40;3.08;;;;;;;;;;5081330;28;20023;-73
2024/01/12 03:54:23;;;;;;;6.32;3.75;;;;;;;;;;5089476;28;20630;-73
2024/01/12 03:56:49;;;;;;;3.25;2.95;;;;;;;;;;5077542;28;20055;-73
2024/01/12 03:59:15;;;;;;;7.47;4.22;;;;;;;;;;5085829;28;20032;-73
2024/01/12 04:01:47;;;;;;;3.55;3.10;;;;;;;;;;5074899;28;20528;-74
2024/01/12 04:04:13;;;;;;;5.05;2.80;;;;;;;;;;5084165;28;20131;-73
2024/01/12 04:06:39;;;;;;;3.65;3.28;;;;;;;;;;5067215;28;20032;-72
2024/01/12 04:09:05;;;;;;;4.63;2.80;;;;;;;;;;5080238;28;20046;-74
2024/01/12 04:11:31;;;;;;;3.97;2.35;;;;;;;;;;5080332;28;20038;-74
2024/01/12 04:13:57;;;;;;;2.83;2.60;;;;;;;;;;5077859;28;20123;-73
2024/01/12 04:16:23;;;;;;;4.40;3.60;;;;;;;;;;5066242;28;20035;-74
2024/01/12 04:18:49;;;;;;;4.75;3.88;;;;;;;;;;5076683;28;20071;-72
2024/01/12 04:21:15;;;;;;;13.55;4.63;;;;;;;;;;5082987;28;20162;-73
2024/01/12 04:23:41;;;;;;;3.35;3.13;;;;;;;;;;5081896;28;20063;-74
2024/01/12 04:26:07;;;;;;;3.05;2.83;;;;;;;;;;5085704;28;20126;-74
2024/01/12 04:28:32;;;;;;;6.32;2.85;;;;;;;;;;5073235;28;20127;-74
2024/01/12 04:31:00;;;;;;;8.93;3.45;;;;;;;;;;5064062;28;20086;-74
2024/01/12 04:33:26;;;;;;;3.45;3.15;;;;;;;;;;5081287;28;20059;-74
2024/01/12 04:35:52;;;;;;;20.50;3.92;;;;;;;;;;5080419;28;20122;-74
2024/01/12 04:38:19;;;;;;;6.32;2.75;;;;;;;;;;5075880;28;20035;-73
2024/01/12 04:40:45;;;;;;;2.35;2.15;;;;;;;;;;5061528;28;20044;-76
2024/01/12 04:43:11;;;;;;;2.15;2.05;;;;;;;;;;5082084;28;20037;-73
2024/01/12 04:45:37;;;;;;;6.00;3.40;;;;;;;;;;5083951;28;20173;-73
2024/01/12 04:48:03;;;;;;;5.00;3.08;;;;;;;;;;5077190;28;20085;-73
2024/01/12 04:50:29;;;;;;;4.25;3.03;;;;;;;;;;5083465;28;20529;-73
2024/01/12 04:52:55;;;;;;;4.68;2.70;;;;;;;;;;5100799;28;21840;-73
2024/01/12 04:55:21;;;;;;;2.95;2.78;;;;;;;;;;5064734;28;20032;-73
2024/01/12 04:57:47;;;;;;;1.95;1.85;;;;;;;;;;5079942;28;20092;-73
2024/01/12 05:00:14;;;;;;;2.05;1.92;;;;;;;;;;5074806;28;20575;-75
2024/01/12 05:02:40;;;;;;;2.33;2.22;;;;;;;;;;5087953;28;20028;-74
2024/01/12 05:05:08;;;;;;;2.45;2.35;;;;;;;;;;5069034;28;20048;-72
2024/01/12 05:07:34;;;;;;;3.65;2.80;;;;;;;;;;5109050;28;20031;-73
2024/01/12 05:10:00;;;;;;;2.22;2.13;;;;;;;;;;5078390;28;20128;-74
2024/01/12 05:12:26;;;;;;;4.28;3.00;;;;;;;;;;5079468;28;20123;-74
2024/01/12 05:14:51;;;;;;;4.57;2.83;;;;;;;;;;5087487;28;20039;-73
2024/01/12 05:17:18;;;;;;;3.53;2.90;;;;;;;;;;5081003;28;20036;-74
2024/01/12 05:19:44;;;;;;;2.85;2.55;;;;;;;;;;5084632;28;20035;-74
2024/01/12 05:22:10;;;;;;;4.47;2.67;;;;;;;;;;5079075;28;20039;-74
2024/01/12 05:24:36;;;;;;;5.90;2.10;;;;;;;;;;5078484;28;20040;-73
2024/01/12 05:27:01;;;;;;;2.15;1.60;;;;;;;;;;5080612;28;20028;-73
2024/01/12 05:29:27;;;;;;;2.30;2.15;;;;;;;;;;5083252;28;20036;-74
2024/01/12 05:31:53;;;;;;;2.17;2.08;;;;;;;;;;5069002;28;20421;-75
2024/01/12 05:34:19;;;;;;;2.75;2.58;;;;;;;;;;5245819;22;20056;-69
2024/01/12 05:36:45;;;;;;;2.40;2.22;;;;;;;;;;5096896;28;20126;-70
2024/01/12 05:39:11;;;;;;;6.50;2.88;;;;;;;;;;5107893;28;20143;-70
2024/01/12 05:41:38;;;;;;;2.10;2.00;;;;;;;;;;5093401;28;20109;-69
2024/01/12 05:44:05;;;;;;;5.07;3.85;;;;;;;;;;5088830;28;20028;-70
2024/01/12 05:46:31;;;;;;;4.30;2.65;;;;;;;;;;5088861;28;20035;-70
2024/01/12 05:48:57;;;;;;;2.55;2.35;;;;;;;;;;5089816;28;20032;-70
2024/01/12 05:51:23;;;;;;;2.03;1.92;;;;;;;;;;5088655;28;20062;-68
2024/01/12 05:53:49;;;;;;;3.47;3.08;;;;;;;;;;5101043;28;20067;-70
2024/01/12 05:56:15;;;;;;;2.88;2.67;;;;;;;;;;5098434;28;20098;-69
2024/01/12 05:58:40;;;;;;;1.90;1.80;;;;;;;;;;5088411;28;20040;-69
2024/01/12 06:01:06;;;;;;;4.20;2.40;;;;;;;;;;5092038;28;20036;-68
2024/01/12 06:03:33;;;;;;;2.92;2.60;;;;;;;;;;5098078;28;20054;-68
2024/01/12 06:05:58;;;;;;;3.50;2.72;;;;;;;;;;5094080;28;20050;-69
2024/01/12 06:08:24;;;;;;;2.83;2.65;;;;;;;;;;5093116;28;20753;-70
2024/01/12 06:10:50;;;;;;;2.15;2.08;;;;;;;;;;5090644;28;20028;-69
2024/01/12 06:13:16;;;;;;;14.95;3.60;;;;;;;;;;5085795;28;20024;-70
2024/01/12 06:15:42;;;;;;;6.03;3.75;;;;;;;;;;5098143;28;20055;-70
2024/01/12 06:18:08;;;;;;;12.63;5.35;;;;;;;;;;5100582;28;20050;-69
2024/01/12 06:20:34;;;;;;;5.60;3.47;;;;;;;;;;5103250;28;20071;-71
2024/01/12 06:23:00;;;;;;;8.85;3.00;;;;;;;;;;5100896;28;20531;-68
2024/01/12 06:25:27;;;;;;;9.40;3.50;;;;;;;;;;5085531;28;20051;-69
2024/01/12 06:27:53;;;;;;;15.73;5.38;;;;;;;;;;5102428;28;20066;-70
2024/01/12 06:30:19;;;;;;;7.30;4.47;;;;;;;;;;5103851;28;20716;-70
2024/01/12 06:32:44;;;;;;;5.95;4.03;;;;;;;;;;5095276;28;20118;-69
2024/01/12 06:35:11;;;;;;;5.68;2.88;;;;;;;;;;5082206;28;20072;-69
2024/01/12 06:37:37;;;;;;;6.03;4.10;;;;;;;;;;5069579;28;20089;-70
2024/01/12 06:40:04;;;;;;;6.22;3.38;;;;;;;;;;5083516;28;20468;-68
2024/01/12 06:42:30;;;;;;;5.40;3.42;;;;;;;;;;5084078;28;20126;-68
2024/01/12 06:44:56;;;;;;;4.57;3.47;;;;;;;;;;5087389;28;20054;-68
2024/01/12 06:47:21;;;;;;;2.85;2.65;;;;;;;;;;5079725;28;20032;-69
2024/01/12 06:49:47;;;;;;;2.75;2.45;;;;;;;;;;5087717;28;20115;-68
2024/01/12 06:52:13;;;;;;;9.30;3.05;;;;;;;;;;5087234;28;20388;-68
2024/01/12 06:54:43;;;;;;;3.15;2.47;;;;;;;;;;5067547;28;20131;-67
2024/01/12 06:57:08;;;;;;;2.63;2.40;;;;;;;;;;5079051;28;20050;-68
2024/01/12 06:59:34;;;;;;;2.85;2.45;;;;;;;;;;5082621;28;20114;-69
2024/01/12 07:02:00;;;;;;;3.13;2.83;;;;;;;;;;5063545;28;20499;-69
2024/01/12 07:04:26;;;;;;;4.03;2.50;;;;;;;;;;5088796;28;20080;-70
2024/01/12 07:06:52;;;;;;;6.55;3.20;;;;;;;;;;5072581;28;20197;-68
2024/01/12 07:09:18;;;;;;;1.70;1.67;;;;;;;;;;5087731;28;20105;-70
2024/01/12 07:11:44;;;;;;;2.50;2.33;;;;;;;;;;5078710;28;20051;-70
2024/01/12 07:14:10;;;;;;;4.15;2.63;;;;;;;;;;5066019;28;20557;-70
2024/01/12 07:16:36;;;;;;;2.70;2.50;;;;;;;;;;5065911;28;20029;-69
2024/01/12 07:19:02;;;;;;;2.88;2.67;;;;;;;;;;5053743;28;20101;-69
2024/01/12 07:21:28;;;;;;;122.95;8.80;;;;;;;;;;5087046;28;20685;-68
2024/01/12 07:23:54;;;;;;;14.75;5.68;;;;;;;;;;5087308;28;20522;-70
2024/01/12 07:26:20;;;;;;;13.07;6.55;;;;;;;;;;5068883;28;20122;-68
2024/01/12 07:28:46;;;;;;;12.63;8.43;;;;;;;;;;5085543;28;20111;-69
2024/01/12 07:31:12;;;;;;;11.48;8.45;;;;;;;;;;5082753;28;20032;-69
2024/01/12 07:33:38;;;;;;;5.18;4.50;;;;;;;;;;5067783;28;20611;-70
2024/01/12 07:36:04;;;;;;;5.95;3.95;;;;;;;;;;5070541;28;20052;-70
2024/01/12 07:38:30;;;;;;;5.57;4.10;;;;;;;;;;5066999;28;20068;-70
2024/01/12 07:40:56;;;;;;;5.95;3.45;;;;;;;;;;5066690;28;20777;-70
2024/01/12 07:43:22;;;;;;;4.95;3.53;;;;;;;;;;5065883;28;20492;-70
2024/01/12 07:45:49;;;;;;;6.13;4.18;;;;;;;;;;5065353;28;20090;-69
2024/01/12 07:48:15;;;;;;;3.63;3.33;;;;;;;;;;5053468;28;20028;-70
2024/01/12 07:50:41;;;;;;;3.05;2.85;;;;;;;;;;5082558;28;20040;-69
2024/01/12 07:53:07;;;;;;;4.10;3.65;;;;;;;;;;5078129;28;20635;-71
2024/01/12 07:55:33;;;;;;;3.50;3.10;;;;;;;;;;5087042;28;20039;-68
2024/01/12 07:57:59;;;;;;;3.78;2.88;;;;;;;;;;5075630;28;20036;-70
2024/01/12 08:00:25;;;;;;;2.67;2.15;;;;;;;;;;5087059;28;20039;-70
2024/01/12 08:02:52;;;;;;;3.05;2.60;;;;;;;;;;5086591;28;20040;-69
2024/01/12 08:05:19;;;;;;;4.32;2.75;;;;;;;;;;5085956;28;20032;-69
2024/01/12 08:07:45;;;;;;;3.60;2.53;;;;;;;;;;5076492;28;20035;-69
2024/01/12 08:10:11;;;;;;;2.75;2.55;;;;;;;;;;5070027;28;20029;-69
2024/01/12 08:12:37;;;;;;;3.35;2.25;;;;;;;;;;5070056;28;20555;-70
2024/01/12 08:15:03;;;;;;;3.60;2.42;;;;;;;;;;5055328;28;20122;-70
2024/01/12 08:17:29;;;;;;;4.97;3.05;;;;;;;;;;5068984;28;20114;-70
2024/01/12 08:19:55;;;;;;;2.95;2.67;;;;;;;;;;5068266;28;20140;-70
2024/01/12 08:22:21;;;;;;;2.17;2.00;;;;;;;;;;5055915;28;20063;-68
2024/01/12 08:24:47;;;;;;;2.42;2.28;;;;;;;;;;5076176;28;20082;-70
2024/01/12 08:27:13;;;;;;;2.92;2.65;;;;;;;;;;5073086;28;20056;-70
2024/01/12 08:29:42;;;;;;;3.95;2.72;;;;;;;;;;5079535;28;20063;-71
2024/01/12 08:32:08;;;;;;;2.97;2.70;;;;;;;;;;5078018;28;20095;-71
2024/01/12 08:34:33;;;;;;;2.85;2.60;;;;;;;;;;5081210;28;20078;-71
2024/01/12 08:36:59;;;;;;;3.90;3.60;;;;;;;;;;5080846;28;20036;-71
2024/01/12 08:39:26;;;;;;;4.05;2.85;;;;;;;;;;5080001;28;20079;-72
2024/01/12 08:41:52;;;;;;;5.65;3.35;;;;;;;;;;5076501;28;20152;-71
2024/01/12 08:44:18;;;;;;;3.05;2.85;;;;;;;;;;5088411;28;20894;-70
2024/01/12 08:46:44;;;;;;;4.88;2.97;;;;;;;;;;5084844;28;20044;-69
2024/01/12 08:49:11;;;;;;;4.85;1.90;;;;;;;;;;5068220;28;20039;-68
2024/01/12 08:51:37;;;;;;;3.20;2.63;;;;;;;;;;5072042;28;20495;-70
2024/01/12 08:54:02;;;;;;;2.97;2.78;;;;;;;;;;5088329;28;20865;-70
2024/01/12 08:56:29;;;;;;;5.65;3.00;;;;;;;;;;5087605;28;20036;-69
2024/01/12 08:58:54;;;;;;;2.53;2.33;;;;;;;;;;5069183;28;20055;-70
2024/01/12 09:01:20;;;;;;;3.75;2.92;;;;;;;;;;5051447;28;20051;-70
2024/01/12 09:03:46;;;;;;;4.82;2.97;;;;;;;;;;5069514;28;20032;-70
2024/01/12 09:06:12;;;;;;;3.58;2.92;;;;;;;;;;5073649;28;20036;-71
2024/01/12 09:08:38;;;;;;;2.95;2.45;;;;;;;;;;5086196;28;20412;-69
2024/01/12 09:11:03;;;;;;;3.08;2.30;;;;;;;;;;5087531;28;20036;-70
2024/01/12 09:13:29;;;;;;;3.65;2.60;;;;;;;;;;5080933;28;20415;-70
2024/01/12 09:15:55;;;;;;;3.55;2.58;;;;;;;;;;5080003;28;20499;-71
2024/01/12 09:18:21;;;;;;;2.50;2.40;;;;;;;;;;5077750;28;20032;-69
2024/01/12 09:20:47;;;;;;;2.75;2.47;;;;;;;;;;5083525;28;20040;-69
2024/01/12 09:23:13;;;;;;;1.95;1.88;;;;;;;;;;5050746;28;20191;-70
2024/01/12 09:25:39;;;;;;;3.38;3.13;;;;;;;;;;5072433;28;20040;-70
2024/01/12 09:28:04;;;;;;;2.30;2.20;;;;;;;;;;5068543;28;20035;-70
2024/01/12 09:30:30;;;;;;;2.78;2.55;;;;;;;;;;5065739;28;20097;-70
2024/01/12 09:32:56;;;;;;;2.53;2.42;;;;;;;;;;5077862;28;20560;-69
2024/01/12 09:35:22;;;;;;;3.38;2.58;;;;;;;;;;5066788;28;20053;-69
2024/01/12 09:37:48;;;;;;;4.80;2.28;;;;;;;;;;5076574;28;20086;-69
2024/01/12 09:40:14;;;;;;;3.17;2.90;;;;;;;;;;5067892;28;20041;-70
2024/01/12 09:42:44;;;;;;;2.60;2.40;;;;;;;;;;5068554;28;20044;-69
2024/01/12 09:45:11;;;;;;;4.57;3.28;;;;;;;;;;5067470;28;20086;-70
2024/01/12 09:47:37;;;;;;;4.07;2.97;;;;;;;;;;5074425;28;20568;-70
2024/01/12 09:50:05;;;;;;;3.00;2.47;;;;;;;;;;5087516;28;20116;-68
2024/01/12 09:52:31;;;;;;;3.30;3.08;;;;;;;;;;5071638;28;20043;-70
2024/01/12 09:54:57;;;;;;;2.80;2.60;;;;;;;;;;5088829;28;20032;-70
2024/01/12 09:57:23;;;;;;;3.58;3.28;;;;;;;;;;5087303;28;20024;-70
2024/01/12 09:59:49;;;;;;;3.28;2.92;;;;;;;;;;5089411;28;20509;-69
2024/01/12 10:02:15;;;;;;;3.25;2.95;;;;;;;;;;5089144;28;20047;-70
2024/01/12 10:04:41;;;;;;;4.30;3.08;;;;;;;;;;5073092;28;20198;-68
2024/01/12 10:07:07;;;;;;;7.53;2.78;;;;;;;;;;5089279;28;20063;-71
2024/01/12 10:09:33;;;;;;;3.33;3.03;;;;;;;;;;5090601;28;20838;-68
2024/01/12 10:11:59;;;;;;;2.50;2.15;;;;;;;;;;5087527;28;20522;-70
2024/01/12 10:14:25;;;;;;;3.13;2.88;;;;;;;;;;5088312;28;20044;-69
2024/01/12 10:16:52;;;;;;;4.45;3.00;;;;;;;;;;5069750;28;20465;-69
2024/01/12 10:19:18;;;;;;;5.07;2.40;;;;;;;;;;5053208;28;20047;-71
2024/01/12 10:21:45;;;;;;;3.00;2.80;;;;;;;;;;5087034;28;20136;-71
2024/01/12 10:24:10;;;;;;;2.70;2.50;;;;;;;;;;5086733;28;20024;-70
2024/01/12 10:26:37;;;;;;;2.03;1.92;;;;;;;;;;5089981;28;20032;-70
2024/01/12 10:29:03;;;;;;;3.70;3.33;;;;;;;;;;5084259;28;20133;-69
2024/01/12 10:31:29;;;;;;;5.93;2.90;;;;;;;;;;5049506;28;20039;-70
2024/01/12 10:33:59;;;;;;;3.28;3.08;;;;;;;;;;5075206;28;20063;-70
2024/01/12 10:36:26;;;;;;;2.75;2.38;;;;;;;;;;5086113;28;20094;-69
2024/01/12 10:38:51;;;;;;;1.90;1.80;;;;;;;;;;5072695;28;20124;-68
2024/01/12 10:41:23;;;;;;;2.33;2.22;;;;;;;;;;5067618;28;20166;-68
2024/01/12 10:43:53;;;;;;;2.40;2.30;;;;;;;;;;5066063;28;20055;-69
2024/01/12 10:46:22;;;;;;;2.67;2.20;;;;;;;;;;5067017;28;20756;-69
2024/01/12 10:48:51;;;;;;;3.13;2.83;;;;;;;;;;5066110;28;20127;-69
2024/01/12 10:51:18;;;;;;;2.92;2.70;;;;;;;;;;5065802;28;20028;-69
2024/01/12 10:53:54;;;;;;;3.50;3.20;;;;;;;;;;5070618;28;20046;-69
2024/01/12 10:56:20;;;;;;;7.88;2.90;;;;;;;;;;5085375;28;20039;-69
2024/01/12 10:58:48;;;;;;;2.60;2.50;;;;;;;;;;5086820;28;20050;-69
2024/01/12 11:01:14;;;;;;;2.28;2.17;;;;;;;;;;5086957;28;20036;-70
2024/01/12 11:03:40;;;;;;;3.03;2.83;;;;;;;;;;5085510;28;20522;-69
2024/01/12 11:06:06;;;;;;;3.25;2.83;;;;;;;;;;5085507;28;20138;-68
2024/01/12 11:08:32;;;;;;;3.03;2.83;;;;;;;;;;5083713;28;20110;-68
2024/01/12 11:10:58;;;;;;;2.60;2.50;;;;;;;;;;5086950;28;20540;-69
2024/01/12 11:13:24;;;;;;;3.72;2.90;;;;;;;;;;5085378;28;20047;-69
2024/01/12 11:15:51;;;;;;;2.33;2.22;;;;;;;;;;5068966;28;20093;-68
2024/01/12 11:18:17;;;;;;;3.08;2.78;;;;;;;;;;5062072;28;20035;-69
2024/01/12 11:21:02;;;;;;;3.97;3.42;;;;;;;;;;5065721;28;20070;-70
2024/01/12 11:23:28;;;;;;;3.65;3.35;;;;;;;;;;5066061;28;20049;-68
2024/01/12 11:25:54;;;;;;;3.40;2.28;;;;;;;;;;5067348;28;20062;-69
2024/01/12 11:28:20;;;;;;;2.55;2.42;;;;;;;;;;5066860;28;20695;-70
2024/01/12 11:30:48;;;;;;;2.70;2.50;;;;;;;;;;5084235;28;20036;-71
2024/01/12 11:33:15;;;;;;;1.92;1.83;;;;;;;;;;5080239;28;20396;-69
2024/01/12 11:35:45;;;;;;;3.55;3.25;;;;;;;;;;5075063;28;20056;-69
2024/01/12 11:38:11;;;;;;;2.88;2.67;;;;;;;;;;5082796;28;20059;-70
2024/01/12 11:40:37;;;;;;;2.80;2.63;;;;;;;;;;5084067;28;20515;-70
2024/01/12 11:43:03;;;;;;;2.80;2.60;;;;;;;;;;5081755;28;20027;-69
2024/01/12 11:45:29;;;;;;;2.00;1.90;;;;;;;;;;5082611;28;20790;-70
2024/01/12 11:47:55;;;;;;;2.90;2.60;;;;;;;;;;5081224;28;20039;-70
2024/01/12 11:50:24;;;;;;;2.30;2.20;;;;;;;;;;5077766;28;20123;-68
2024/01/12 11:52:57;;;;;;;4.20;2.30;;;;;;;;;;5079260;28;20110;-69
2024/01/12 11:55:23;;;;;;;3.40;3.15;;;;;;;;;;5079949;28;20461;-68
2024/01/12 11:57:49;;;;;;;6.10;3.58;;;;;;;;;;5078010;28;20033;-69
2024/01/12 12:00:15;;;;;;;3.50;2.90;;;;;;;;;;5063025;28;20092;-69
2024/01/12 12:02:41;;;;;;;3.22;2.83;;;;;;;;;;5068196;28;20039;-69
2024/01/12 12:05:07;;;;;;;4.82;3.80;;;;;;;;;;5078657;28;20024;-69
2024/01/12 12:07:36;;;;;;;5.57;2.85;;;;;;;;;;5079290;28;20622;-68
2024/01/12 12:10:02;;;;;;;2.75;2.55;;;;;;;;;;5078024;28;20021;-69
2024/01/12 12:12:30;;;;;;;2.50;2.38;;;;;;;;;;5083010;28;20035;-70
2024/01/12 12:15:06;;;;;;;3.15;2.78;;;;;;;;;;5079282;28;20024;-70
2024/01/12 12:17:37;;;;;;;2.83;2.60;;;;;;;;;;5077923;28;20029;-69
2024/01/12 12:20:04;;;;;;;4.53;3.47;;;;;;;;;;5082674;28;20289;-68
2024/01/12 12:22:30;;;;;;;4.20;3.80;;;;;;;;;;5080792;28;20043;-70
2024/01/12 12:24:56;;;;;;;2.72;2.38;;;;;;;;;;5079589;28;20032;-70
2024/01/12 12:27:22;;;;;;;3.67;2.53;;;;;;;;;;5078405;28;20036;-70
2024/01/12 12:29:48;;;;;;;3.80;3.20;;;;;;;;;;5078173;28;20058;-69
2024/01/12 12:32:14;;;;;;;3.80;3.50;;;;;;;;;;5070618;28;20127;-69
2024/01/12 12:34:40;;;;;;;3.10;2.83;;;;;;;;;;5063190;28;20044;-70
2024/01/12 12:37:07;;;;;;;3.67;3.38;;;;;;;;;;5077525;28;20032;-70
2024/01/12 12:39:33;;;;;;;3.20;2.97;;;;;;;;;;5080749;28;20036;-69
2024/01/12 12:41:59;;;;;;;3.60;3.13;;;;;;;;;;5079649;28;20050;-69
2024/01/12 12:44:25;;;;;;;5.65;3.30;;;;;;;;;;5079929;28;20039;-70
2024/01/12 12:46:51;;;;;;;5.78;2.97;;;;;;;;;;5078988;28;20036;-70
2024/01/12 12:49:17;;;;;;;3.05;2.85;;;;;;;;;;5086727;28;20027;-70
2024/01/12 12:51:44;;;;;;;2.30;2.20;;;;;;;;;;5084408;28;20031;-69
2024/01/12 12:54:09;;;;;;;3.47;3.17;;;;;;;;;;5077456;28;20082;-70
2024/01/12 12:56:35;;;;;;;3.28;3.08;;;;;;;;;;5078962;28;20643;-69
2024/01/12 12:59:02;;;;;;;3.22;3.03;;;;;;;;;;5079798;28;20031;-70
2024/01/12 13:01:28;;;;;;;2.85;2.65;;;;;;;;;;5080027;28;20048;-69
2024/01/12 13:03:54;;;;;;;4.00;3.65;;;;;;;;;;5078822;28;20082;-70
2024/01/12 13:06:20;;;;;;;4.30;3.42;;;;;;;;;;5080690;28;20031;-70
2024/01/12 13:08:45;;;;;;;4.38;2.33;;;;;;;;;;5081114;28;20775;-71
2024/01/12 13:11:11;;;;;;;4.15;2.72;;;;;;;;;;5077082;28;20191;-70
2024/01/12 13:13:37;;;;;;;3.13;2.92;;;;;;;;;;5078241;28;20036;-70
2024/01/12 13:16:03;;;;;;;2.42;2.33;;;;;;;;;;5079548;28;20040;-68
2024/01/12 13:18:29;;;;;;;3.20;3.00;;;;;;;;;;5082075;28;20024;-69
2024/01/12 13:20:55;;;;;;;3.58;3.17;;;;;;;;;;5078115;28;20050;-70
2024/01/12 13:23:21;;;;;;;3.00;2.80;;;;;;;;;;5078628;28;20036;-69
2024/01/12 13:25:48;;;;;;;4.97;2.38;;;;;;;;;;5079816;28;20047;-70
2024/01/12 13:28:14;;;;;;;4.13;3.45;;;;;;;;;;5077952;28;20574;-70
2024/01/12 13:30:40;;;;;;;4.40;3.72;;;;;;;;;;5045167;28;20108;-70
2024/01/12 13:33:06;;;;;;;3.75;3.45;;;;;;;;;;5083425;28;20626;-69
2024/01/12 13:35:32;;;;;;;6.85;3.67;;;;;;;;;;5067193;28;20078;-69
2024/01/12 13:37:58;;;;;;;4.57;3.83;;;;;;;;;;5070091;28;20500;-69
2024/01/12 13:40:25;;;;;;;3.42;3.13;;;;;;;;;;5069538;28;20032;-69
2024/01/12 13:42:51;;;;;;;3.38;3.17;;;;;;;;;;5069132;28;20086;-70
2024/01/12 13:45:17;;;;;;;4.55;3.03;;;;;;;;;;5068534;28;20032;-69
2024/01/12 13:48:02;;;;;;;2.60;2.45;;;;;;;;;;5067567;28;20062;-70
2024/01/12 13:50:28;;;;;;;7.93;3.20;;;;;;;;;;5068407;28;20445;-69
2024/01/12 13:52:54;;;;;;;2.92;2.67;;;;;;;;;;5085303;28;20043;-69
2024/01/12 13:55:20;;;;;;;5.03;3.05;;;;;;;;;;5071915;28;20384;-70
2024/01/12 13:58:04;;;;;;;3.55;3.30;;;;;;;;;;5089717;28;20467;-69
2024/01/12 14:00:30;;;;;;;3.72;3.35;;;;;;;;;;5088534;28;20127;-69
2024/01/12 14:02:58;;;;;;;2.90;2.70;;;;;;;;;;5071109;28;20127;-70
2024/01/12 14:05:24;;;;;;;3.40;3.20;;;;;;;;;;5090293;28;20036;-69
2024/01/12 14:07:50;;;;;;;6.82;2.70;;;;;;;;;;5055967;28;20032;-70
2024/01/12 14:10:15;;;;;;;5.13;3.00;;;;;;;;;;5072150;28;20043;-70
2024/01/12 14:12:42;;;;;;;3.53;2.58;;;;;;;;;;5089992;28;20028;-70
2024/01/12 14:15:08;;;;;;;2.78;2.67;;;;;;;;;;5089980;28;20039;-70
2024/01/12 14:17:34;;;;;;;3.22;3.03;;;;;;;;;;5071337;28;20138;-68
2024/01/12 14:19:59;;;;;;;4.50;2.80;;;;;;;;;;5089532;28;20551;-70
2024/01/12 14:22:26;;;;;;;2.45;2.35;;;;;;;;;;5089829;28;20043;-70
2024/01/12 14:24:52;;;;;;;3.92;3.63;;;;;;;;;;5089169;28;20448;-69
2024/01/12 14:27:18;;;;;;;3.03;2.83;;;;;;;;;;5088143;28;20031;-68
2024/01/12 14:29:44;;;;;;;2.88;2.53;;;;;;;;;;5089562;28;20568;-69
2024/01/12 14:32:10;;;;;;;3.25;2.88;;;;;;;;;;5089424;28;20032;-69
2024/01/12 14:34:38;;;;;;;3.03;2.83;;;;;;;;;;5089400;28;20527;-70
2024/01/12 14:37:04;;;;;;;3.22;3.03;;;;;;;;;;5088141;28;20577;-69